createdAt,value
2016-07-14T00:00:38.373Z,23.07
2016-07-14T00:01:38.366Z,23.07
2016-07-14T00:02:38.351Z,23.04
2016-07-14T00:03:38.331Z,23.12
2016-07-14T00:04:38.323Z,23.14
2016-07-14T00:05:38.313Z,23.11
2016-07-14T00:06:38.320Z,23.06
2016-07-14T00:07:38.277Z,23.07
2016-07-14T00:08:38.263Z,23.07
2016-07-14T00:09:38.249Z,23.04
2016-07-14T00:10:37.519Z,23.07
2016-07-14T00:11:38.220Z,23.09
2016-07-14T00:12:38.194Z,23.07
2016-07-14T00:13:38.183Z,23.14
2016-07-14T00:14:37.460Z,23.12
2016-07-14T00:15:38.156Z,23.07
2016-07-14T00:16:38.140Z,23.12
2016-07-14T00:17:38.129Z,23.07
2016-07-14T00:18:38.112Z,23.07
2016-07-14T00:19:37.392Z,23.18
2016-07-14T00:20:38.083Z,23.04
2016-07-14T00:21:38.070Z,23.14
2016-07-14T00:22:38.053Z,23.07
2016-07-14T00:23:38.039Z,23.04
2016-07-14T00:24:38.023Z,23.07
2016-07-14T00:25:38.014Z,23.07
2016-07-14T00:26:37.996Z,23.12
2016-07-14T00:27:37.980Z,23.07
2016-07-14T00:28:37.963Z,23.09
2016-07-14T00:29:37.958Z,23.09
2016-07-14T00:30:37.927Z,23.07
2016-07-14T00:31:37.928Z,23.15
2016-07-14T00:32:37.911Z,23.19
2016-07-14T00:33:37.885Z,23.18
2016-07-14T00:34:37.874Z,23.16
2016-07-14T00:35:37.861Z,23.01
2016-07-14T00:36:37.845Z,22.86
2016-07-14T00:37:37.831Z,22.64
2016-07-14T00:38:37.815Z,22.61
2016-07-14T00:39:37.800Z,22.78
2016-07-14T00:40:37.784Z,22.85
2016-07-14T00:41:37.780Z,23.01
2016-07-14T00:42:37.756Z,22.99
2016-07-14T00:43:37.742Z,23.06
2016-07-14T00:44:37.722Z,22.97
2016-07-14T00:45:37.716Z,22.75
2016-07-14T00:46:37.699Z,22.46
2016-07-14T00:47:37.683Z,22.39
2016-07-14T00:48:37.664Z,22.31
2016-07-14T00:49:37.649Z,22.14
2016-07-14T00:50:36.926Z,21.96
2016-07-14T00:51:37.629Z,21.94
2016-07-14T00:52:37.605Z,21.94
2016-07-14T00:53:37.595Z,21.86
2016-07-14T00:54:37.573Z,21.79
2016-07-14T00:55:37.560Z,21.75
2016-07-14T00:56:37.541Z,21.79
2016-07-14T00:57:37.529Z,21.77
2016-07-14T00:58:37.517Z,21.67
2016-07-14T00:59:37.503Z,21.63
2016-07-14T01:00:37.486Z,21.7
2016-07-14T01:01:37.468Z,21.68
2016-07-14T01:02:37.446Z,21.71
2016-07-14T01:03:37.444Z,21.7
2016-07-14T01:04:37.422Z,21.61
2016-07-14T01:05:37.407Z,21.64
2016-07-14T01:06:37.395Z,21.64
2016-07-14T01:07:37.390Z,21.67
2016-07-14T01:08:37.359Z,21.49
2016-07-14T01:09:37.347Z,21.53
2016-07-14T01:10:37.327Z,21.45
2016-07-14T01:11:37.321Z,21.53
2016-07-14T01:12:37.301Z,21.55
2016-07-14T01:13:37.286Z,21.43
2016-07-14T01:14:37.270Z,21.55
2016-07-14T01:15:37.258Z,21.43
2016-07-14T01:16:37.242Z,21.4
2016-07-14T01:17:37.221Z,21.43
2016-07-14T01:18:37.210Z,21.31
2016-07-14T01:19:36.476Z,21.38
2016-07-14T01:20:37.183Z,21.26
2016-07-14T01:21:37.164Z,21.27
2016-07-14T01:22:37.146Z,21.28
2016-07-14T01:23:37.140Z,21.27
2016-07-14T01:24:37.116Z,21.13
2016-07-14T01:25:37.104Z,21.11
2016-07-14T01:26:37.082Z,21.19
2016-07-14T01:27:37.069Z,21.15
2016-07-14T01:28:37.054Z,21.16
2016-07-14T01:29:37.037Z,21.05
2016-07-14T01:30:37.023Z,21.16
2016-07-14T01:31:37.004Z,21.16
2016-07-14T01:32:36.989Z,21.15
2016-07-14T01:33:36.976Z,21.19
2016-07-14T01:34:36.962Z,21.09
2016-07-14T01:35:36.941Z,21.15
2016-07-14T01:36:36.215Z,21.13
2016-07-14T01:37:36.214Z,21.12
2016-07-14T01:38:36.890Z,21.08
2016-07-14T01:39:36.880Z,21.05
2016-07-14T01:40:36.154Z,21.01
2016-07-14T01:41:36.846Z,21
2016-07-14T01:42:36.835Z,20.97
2016-07-14T01:43:36.817Z,21.01
2016-07-14T01:44:36.805Z,20.91
2016-07-14T01:45:36.790Z,20.91
2016-07-14T01:46:36.766Z,20.94
2016-07-14T01:47:36.754Z,21
2016-07-14T01:48:36.731Z,20.91
2016-07-14T01:49:36.721Z,20.85
2016-07-14T01:50:36.701Z,20.83
2016-07-14T01:51:36.685Z,20.83
2016-07-14T01:52:36.668Z,20.9
2016-07-14T01:53:36.670Z,20.94
2016-07-14T01:54:36.639Z,20.96
2016-07-14T01:55:36.625Z,20.81
2016-07-14T01:56:36.605Z,20.76
2016-07-14T01:57:36.596Z,20.85
2016-07-14T01:58:36.600Z,20.76
2016-07-14T01:59:36.576Z,20.85
2016-07-14T02:00:36.548Z,20.91
2016-07-14T02:01:35.820Z,20.81
2016-07-14T02:02:36.518Z,20.73
2016-07-14T02:03:36.500Z,20.75
2016-07-14T02:04:36.486Z,20.81
2016-07-14T02:05:36.464Z,20.81
2016-07-14T02:06:36.458Z,20.81
2016-07-14T02:07:36.431Z,20.88
2016-07-14T02:08:36.419Z,20.81
2016-07-14T02:09:36.402Z,20.81
2016-07-14T02:10:35.679Z,20.81
2016-07-14T02:11:36.376Z,20.79
2016-07-14T02:12:36.354Z,20.79
2016-07-14T02:13:36.347Z,20.81
2016-07-14T02:14:36.322Z,20.72
2016-07-14T02:15:36.305Z,20.78
2016-07-14T02:16:36.288Z,20.76
2016-07-14T02:17:36.285Z,20.68
2016-07-14T02:18:36.255Z,20.68
2016-07-14T02:19:36.248Z,20.73
2016-07-14T02:20:36.229Z,20.64
2016-07-14T02:21:36.215Z,20.72
2016-07-14T02:22:36.198Z,20.75
2016-07-14T02:23:36.185Z,20.78
2016-07-14T02:24:36.164Z,20.76
2016-07-14T02:25:36.157Z,20.68
2016-07-14T02:26:36.130Z,20.6
2016-07-14T02:27:36.111Z,20.63
2016-07-14T02:28:36.103Z,20.68
2016-07-14T02:29:36.077Z,20.61
2016-07-14T02:30:36.066Z,20.46
2016-07-14T02:31:36.047Z,20.58
2016-07-14T02:32:36.036Z,20.6
2016-07-14T02:33:36.014Z,20.58
2016-07-14T02:34:36.006Z,20.56
2016-07-14T02:35:35.995Z,20.51
2016-07-14T02:36:35.971Z,20.58
2016-07-14T02:37:35.960Z,20.54
2016-07-14T02:38:35.931Z,20.53
2016-07-14T02:39:35.924Z,20.46
2016-07-14T02:40:35.905Z,20.5
2016-07-14T02:41:35.891Z,20.46
2016-07-14T02:42:35.871Z,20.5
2016-07-14T02:43:35.854Z,20.5
2016-07-14T02:44:35.845Z,20.53
2016-07-14T02:45:35.823Z,20.48
2016-07-14T02:46:35.807Z,20.42
2016-07-14T02:47:35.789Z,20.53
2016-07-14T02:48:35.772Z,20.46
2016-07-14T02:49:35.764Z,20.5
2016-07-14T02:50:35.736Z,20.5
2016-07-14T02:51:35.735Z,20.42
2016-07-14T02:52:34.999Z,20.31
2016-07-14T02:53:35.685Z,20.33
2016-07-14T02:54:34.972Z,20.38
2016-07-14T02:55:35.657Z,20.33
2016-07-14T02:56:35.655Z,20.27
2016-07-14T02:57:35.633Z,20.37
2016-07-14T02:58:35.620Z,20.31
2016-07-14T02:59:34.895Z,20.31
2016-07-14T03:00:35.579Z,20.26
2016-07-14T03:01:35.568Z,20.26
2016-07-14T03:02:35.554Z,20.3
2016-07-14T03:03:35.532Z,20.22
2016-07-14T03:04:35.515Z,20.31
2016-07-14T03:05:35.496Z,20.33
2016-07-14T03:06:35.486Z,20.33
2016-07-14T03:07:34.763Z,20.3
2016-07-14T03:08:35.450Z,20.26
2016-07-14T03:09:35.436Z,20.35
2016-07-14T03:10:35.421Z,20.3
2016-07-14T03:11:35.400Z,20.31
2016-07-14T03:12:35.390Z,20.2
2016-07-14T03:13:35.366Z,20.26
2016-07-14T03:14:35.354Z,20.19
2016-07-14T03:15:35.337Z,20.2
2016-07-14T03:16:35.324Z,20.16
2016-07-14T03:17:35.304Z,20.23
2016-07-14T03:18:35.303Z,20.15
2016-07-14T03:19:35.268Z,20.22
2016-07-14T03:20:35.263Z,20.08
2016-07-14T03:21:35.240Z,20.07
2016-07-14T03:22:35.225Z,20.1
2016-07-14T03:23:35.202Z,20.12
2016-07-14T03:24:35.184Z,20.15
2016-07-14T03:25:34.470Z,20.08
2016-07-14T03:26:34.445Z,20.04
2016-07-14T03:27:35.141Z,20.15
2016-07-14T03:28:35.126Z,20.19
2016-07-14T03:29:35.113Z,20.12
2016-07-14T03:30:35.087Z,20.08
2016-07-14T03:31:35.066Z,20.08
2016-07-14T03:32:35.061Z,20.07
2016-07-14T03:33:35.035Z,20.12
2016-07-14T03:34:35.028Z,20.1
2016-07-14T03:35:35.017Z,20.1
2016-07-14T03:36:34.991Z,19.94
2016-07-14T03:37:34.983Z,20.01
2016-07-14T03:38:34.966Z,19.95
2016-07-14T03:39:34.945Z,19.94
2016-07-14T03:40:34.939Z,20
2016-07-14T03:41:34.915Z,19.97
2016-07-14T03:42:34.897Z,20
2016-07-14T03:43:34.879Z,20.07
2016-07-14T03:44:34.856Z,20.08
2016-07-14T03:45:34.845Z,19.97
2016-07-14T03:46:34.825Z,19.95
2016-07-14T03:47:34.834Z,19.94
2016-07-14T03:48:34.794Z,19.98
2016-07-14T03:49:34.065Z,19.97
2016-07-14T03:50:34.769Z,19.97
2016-07-14T03:51:34.755Z,19.85
2016-07-14T03:52:34.727Z,19.87
2016-07-14T03:53:34.001Z,19.86
2016-07-14T03:54:34.692Z,19.85
2016-07-14T03:55:33.975Z,19.83
2016-07-14T03:56:34.670Z,19.94
2016-07-14T03:57:34.649Z,19.82
2016-07-14T03:58:34.632Z,19.9
2016-07-14T03:59:34.613Z,19.83
2016-07-14T04:00:34.607Z,19.85
2016-07-14T04:01:34.573Z,19.85
2016-07-14T04:02:34.573Z,19.89
2016-07-14T04:03:34.544Z,19.85
2016-07-14T04:04:33.825Z,19.86
2016-07-14T04:05:34.519Z,19.85
2016-07-14T04:06:34.489Z,19.86
2016-07-14T04:07:34.487Z,19.85
2016-07-14T04:08:34.467Z,19.78
2016-07-14T04:09:34.454Z,19.87
2016-07-14T04:10:34.433Z,19.86
2016-07-14T04:11:34.411Z,19.79
2016-07-14T04:12:34.398Z,19.82
2016-07-14T04:13:34.391Z,19.82
2016-07-14T04:14:34.358Z,19.82
2016-07-14T04:15:34.355Z,19.82
2016-07-14T04:16:34.334Z,19.82
2016-07-14T04:17:34.316Z,19.86
2016-07-14T04:18:34.301Z,19.78
2016-07-14T04:19:34.273Z,19.8
2016-07-14T04:20:34.281Z,19.78
2016-07-14T04:21:34.245Z,19.72
2016-07-14T04:22:34.229Z,19.78
2016-07-14T04:23:34.224Z,19.78
2016-07-14T04:24:34.197Z,19.79
2016-07-14T04:25:34.193Z,19.82
2016-07-14T04:26:34.163Z,19.82
2016-07-14T04:27:34.152Z,19.79
2016-07-14T04:28:34.127Z,19.75
2016-07-14T04:29:34.113Z,19.71
2016-07-14T04:30:34.103Z,19.75
2016-07-14T04:31:34.089Z,19.79
2016-07-14T04:32:34.064Z,19.76
2016-07-14T04:33:33.353Z,19.71
2016-07-14T04:34:34.040Z,19.71
2016-07-14T04:35:34.021Z,19.79
2016-07-14T04:36:34.004Z,19.79
2016-07-14T04:37:33.980Z,19.79
2016-07-14T04:38:33.967Z,19.78
2016-07-14T04:39:33.291Z,19.78
2016-07-14T04:40:33.947Z,19.72
2016-07-14T04:41:33.916Z,19.68
2016-07-14T04:42:33.896Z,19.65
2016-07-14T04:43:33.882Z,19.67
2016-07-14T04:44:33.866Z,19.79
2016-07-14T04:45:33.855Z,19.71
2016-07-14T04:46:33.834Z,19.7
2016-07-14T04:47:33.824Z,19.7
2016-07-14T04:48:33.799Z,19.68
2016-07-14T04:49:33.782Z,19.7
2016-07-14T04:50:33.775Z,19.78
2016-07-14T04:51:33.749Z,19.75
2016-07-14T04:52:33.735Z,19.8
2016-07-14T04:53:33.714Z,19.65
2016-07-14T04:54:33.710Z,19.7
2016-07-14T04:55:33.685Z,19.7
2016-07-14T04:56:33.663Z,19.72
2016-07-14T04:57:32.940Z,19.67
2016-07-14T04:58:33.635Z,19.78
2016-07-14T04:59:33.626Z,19.71
2016-07-14T05:00:33.598Z,19.72
2016-07-14T05:01:33.588Z,19.71
2016-07-14T05:02:33.569Z,19.76
2016-07-14T05:03:33.554Z,19.71
2016-07-14T05:04:33.534Z,19.68
2016-07-14T05:05:33.519Z,19.75
2016-07-14T05:06:33.505Z,19.71
2016-07-14T05:07:33.486Z,19.71
2016-07-14T05:08:33.469Z,19.75
2016-07-14T05:09:33.458Z,19.67
2016-07-14T05:10:32.728Z,19.64
2016-07-14T05:11:33.417Z,19.72
2016-07-14T05:12:33.408Z,19.68
2016-07-14T05:13:33.393Z,19.76
2016-07-14T05:14:33.368Z,19.71
2016-07-14T05:15:33.354Z,19.76
2016-07-14T05:16:33.333Z,19.78
2016-07-14T05:17:33.321Z,19.75
2016-07-14T05:18:33.301Z,19.72
2016-07-14T05:19:33.289Z,19.79
2016-07-14T05:20:33.279Z,19.83
2016-07-14T05:21:33.251Z,19.87
2016-07-14T05:22:33.234Z,20.01
2016-07-14T05:23:33.217Z,20.19
2016-07-14T05:24:32.499Z,20.48
2016-07-14T05:25:33.184Z,20.71
2016-07-14T05:26:33.167Z,20.76
2016-07-14T05:27:33.149Z,20.82
2016-07-14T05:28:33.143Z,20.91
2016-07-14T05:29:33.117Z,20.87
2016-07-14T05:30:33.111Z,20.97
2016-07-14T05:31:33.085Z,20.85
2016-07-14T05:32:33.075Z,20.9
2016-07-14T05:33:33.057Z,20.94
2016-07-14T05:34:32.327Z,21.01
2016-07-14T05:35:32.319Z,20.94
2016-07-14T05:36:32.297Z,20.98
2016-07-14T05:37:32.989Z,21.11
2016-07-14T05:38:32.968Z,21.13
2016-07-14T05:39:32.951Z,21.15
2016-07-14T05:40:32.939Z,21.06
2016-07-14T05:41:32.932Z,21.15
2016-07-14T05:42:32.912Z,21.15
2016-07-14T05:43:32.886Z,21.22
2016-07-14T05:44:32.875Z,21.21
2016-07-14T05:45:32.856Z,21.24
2016-07-14T05:46:32.839Z,21.21
2016-07-14T05:47:32.111Z,21.26
2016-07-14T05:48:32.804Z,21.26
2016-07-14T05:49:32.791Z,21.28
2016-07-14T05:50:32.768Z,21.3
2016-07-14T05:51:32.759Z,21.34
2016-07-14T05:52:32.743Z,21.26
2016-07-14T05:53:32.719Z,21.21
2016-07-14T05:54:32.703Z,21.28
2016-07-14T05:55:32.700Z,21.31
2016-07-14T05:56:31.256Z,21.28
2016-07-14T05:57:32.667Z,21.24
2016-07-14T05:58:32.641Z,21.22
2016-07-14T05:59:32.628Z,21.34
2016-07-14T06:00:32.604Z,21.37
2016-07-14T06:01:32.598Z,21.43
2016-07-14T06:02:32.577Z,21.37
2016-07-14T06:03:31.849Z,21.37
2016-07-14T06:04:32.547Z,21.36
2016-07-14T06:05:32.537Z,21.37
2016-07-14T06:06:32.509Z,21.38
2016-07-14T06:07:32.495Z,21.4
2016-07-14T06:08:32.486Z,21.45
2016-07-14T06:09:32.464Z,21.4
2016-07-14T06:10:31.744Z,21.51
2016-07-14T06:11:32.432Z,21.53
2016-07-14T06:12:32.412Z,21.53
2016-07-14T06:13:32.400Z,21.52
2016-07-14T06:14:32.390Z,21.52
2016-07-14T06:15:32.367Z,21.51
2016-07-14T06:16:32.350Z,21.58
2016-07-14T06:17:32.346Z,21.52
2016-07-14T06:18:32.322Z,21.58
2016-07-14T06:19:32.298Z,21.55
2016-07-14T06:20:32.282Z,21.61
2016-07-14T06:21:32.272Z,21.59
2016-07-14T06:22:31.539Z,21.64
2016-07-14T06:23:32.246Z,21.55
2016-07-14T06:24:31.528Z,21.58
2016-07-14T06:25:32.214Z,21.61
2016-07-14T06:26:32.187Z,21.55
2016-07-14T06:27:32.182Z,21.66
2016-07-14T06:28:32.163Z,21.56
2016-07-14T06:29:32.144Z,21.66
2016-07-14T06:30:31.423Z,21.67
2016-07-14T06:31:31.405Z,21.66
2016-07-14T06:32:32.096Z,21.61
2016-07-14T06:33:32.088Z,21.61
2016-07-14T06:34:31.362Z,21.73
2016-07-14T06:35:32.054Z,21.7
2016-07-14T06:36:32.040Z,21.73
2016-07-14T06:37:32.014Z,21.74
2016-07-14T06:38:32.002Z,21.77
2016-07-14T06:39:31.986Z,21.71
2016-07-14T06:40:31.968Z,21.67
2016-07-14T06:41:31.969Z,21.75
2016-07-14T06:42:31.939Z,21.71
2016-07-14T06:43:31.916Z,21.73
2016-07-14T06:44:31.907Z,21.7
2016-07-14T06:45:31.188Z,21.74
2016-07-14T06:46:31.868Z,21.82
2016-07-14T06:47:31.865Z,21.77
2016-07-14T06:48:31.846Z,21.75
2016-07-14T06:49:31.825Z,21.77
2016-07-14T06:50:31.817Z,21.74
2016-07-14T06:51:31.790Z,21.79
2016-07-14T06:52:31.772Z,21.75
2016-07-14T06:53:31.764Z,21.79
2016-07-14T06:54:31.745Z,21.81
2016-07-14T06:55:31.730Z,21.73
2016-07-14T06:56:31.716Z,21.79
2016-07-14T06:57:31.704Z,21.79
2016-07-14T06:58:31.681Z,21.75
2016-07-14T06:59:31.667Z,21.74
2016-07-14T07:00:31.657Z,21.75
2016-07-14T07:01:31.642Z,21.81
2016-07-14T07:02:31.620Z,21.79
2016-07-14T07:03:31.604Z,21.77
2016-07-14T07:04:31.591Z,21.85
2016-07-14T07:05:31.573Z,21.85
2016-07-14T07:06:31.559Z,21.83
2016-07-14T07:07:31.533Z,21.91
2016-07-14T07:08:30.813Z,21.83
2016-07-14T07:09:30.799Z,21.77
2016-07-14T07:10:31.495Z,21.89
2016-07-14T07:11:31.472Z,21.79
2016-07-14T07:12:31.463Z,21.86
2016-07-14T07:13:31.450Z,21.86
2016-07-14T07:14:31.439Z,21.79
2016-07-14T07:15:31.406Z,21.79
2016-07-14T07:16:31.388Z,21.79
2016-07-14T07:17:31.394Z,21.81
2016-07-14T07:18:31.358Z,21.86
2016-07-14T07:19:30.644Z,21.75
2016-07-14T07:20:31.335Z,21.81
2016-07-14T07:21:31.327Z,21.85
2016-07-14T07:22:31.301Z,21.89
2016-07-14T07:23:31.285Z,21.86
2016-07-14T07:25:31.248Z,21.83
2016-07-14T07:26:31.232Z,21.89
2016-07-14T07:27:31.226Z,21.82
2016-07-14T07:28:31.199Z,21.86
2016-07-14T07:29:31.204Z,21.86
2016-07-14T07:30:31.171Z,21.83
2016-07-14T07:31:30.443Z,21.85
2016-07-14T07:32:31.151Z,21.83
2016-07-14T07:33:31.139Z,21.73
2016-07-14T07:34:31.120Z,21.63
2016-07-14T07:35:31.096Z,21.56
2016-07-14T07:36:31.078Z,21.49
2016-07-14T07:37:31.065Z,21.4
2016-07-14T07:38:31.050Z,21.38
2016-07-14T07:39:31.025Z,21.42
2016-07-14T07:40:29.600Z,21.3
2016-07-14T07:41:31.005Z,21.24
2016-07-14T07:42:30.989Z,21.43
2016-07-14T07:43:30.253Z,21.46
2016-07-14T07:44:30.240Z,21.38
2016-07-14T07:45:30.226Z,21.42
2016-07-14T07:46:30.942Z,21.38
2016-07-14T07:47:30.907Z,21.37
2016-07-14T07:48:30.891Z,21.45
2016-07-14T07:49:30.876Z,21.48
2016-07-14T07:50:30.858Z,21.42
2016-07-14T07:51:30.857Z,21.53
2016-07-14T07:52:30.822Z,21.53
2016-07-14T07:53:30.819Z,21.49
2016-07-14T07:54:30.790Z,21.49
2016-07-14T07:55:30.773Z,21.43
2016-07-14T07:56:30.759Z,21.42
2016-07-14T07:57:30.747Z,21.4
2016-07-14T07:58:30.721Z,21.4
2016-07-14T07:59:30.717Z,21.43
2016-07-14T08:00:29.984Z,21.52
2016-07-14T08:01:30.683Z,21.36
2016-07-14T08:02:30.663Z,21.52
2016-07-14T08:03:30.649Z,21.46
2016-07-14T08:04:29.216Z,21.45
2016-07-14T08:05:29.909Z,21.4
2016-07-14T08:06:29.898Z,21.55
2016-07-14T08:07:30.597Z,21.43
2016-07-14T08:08:29.865Z,21.45
2016-07-14T08:09:30.548Z,21.43
2016-07-14T08:10:30.539Z,21.4
2016-07-14T08:11:30.522Z,21.4
2016-07-14T08:12:30.507Z,21.37
2016-07-14T08:13:29.789Z,21.43
2016-07-14T08:14:30.476Z,21.49
2016-07-14T08:15:30.466Z,21.49
2016-07-14T08:16:30.439Z,21.58
2016-07-14T08:17:30.429Z,21.71
2016-07-14T08:18:30.417Z,21.71
2016-07-14T08:19:30.398Z,21.89
2016-07-14T08:20:30.367Z,21.89
2016-07-14T08:21:30.362Z,21.93
2016-07-14T08:22:29.639Z,21.98
2016-07-14T08:23:30.333Z,22.04
2016-07-14T08:24:30.308Z,22.06
2016-07-14T08:25:30.301Z,22.11
2016-07-14T08:26:30.278Z,22.12
2016-07-14T08:27:30.269Z,22.05
2016-07-14T08:28:30.249Z,22.12
2016-07-14T08:29:30.242Z,22.14
2016-07-14T08:30:30.222Z,22.2
2016-07-14T08:31:29.499Z,22.14
2016-07-14T08:32:30.189Z,22.17
2016-07-14T08:33:30.192Z,22.24
2016-07-14T08:34:30.167Z,22.26
2016-07-14T08:35:29.438Z,22.23
2016-07-14T08:36:30.147Z,22.2
2016-07-14T08:37:30.118Z,22.29
2016-07-14T08:38:30.115Z,22.19
2016-07-14T08:39:30.105Z,22.24
2016-07-14T08:40:30.062Z,22.26
2016-07-14T08:41:30.050Z,22.17
2016-07-14T08:42:30.033Z,22.21
2016-07-14T08:43:30.004Z,22.33
2016-07-14T08:44:29.992Z,22.39
2016-07-14T08:45:29.987Z,22.35
2016-07-14T08:46:29.961Z,22.36
2016-07-14T08:47:29.952Z,22.46
2016-07-14T08:48:29.221Z,22.38
2016-07-14T08:49:29.934Z,22.44
2016-07-14T08:50:29.900Z,22.45
2016-07-14T08:51:29.881Z,22.51
2016-07-14T08:52:29.869Z,22.52
2016-07-14T08:53:29.856Z,22.48
2016-07-14T08:54:29.837Z,22.51
2016-07-14T08:55:29.823Z,22.48
2016-07-14T08:56:29.103Z,22.54
2016-07-14T08:57:29.791Z,22.52
2016-07-14T08:58:29.780Z,22.54
2016-07-14T08:59:29.759Z,22.46
2016-07-14T09:00:29.755Z,22.46
2016-07-14T09:01:29.733Z,22.56
2016-07-14T09:02:29.001Z,22.57
2016-07-14T09:03:29.699Z,22.46
2016-07-14T09:04:29.693Z,22.56
2016-07-14T09:05:29.671Z,22.46
2016-07-14T09:06:29.649Z,22.6
2016-07-14T09:07:29.635Z,22.57
2016-07-14T09:08:29.631Z,22.57
2016-07-14T09:09:29.611Z,22.59
2016-07-14T09:10:29.589Z,22.56
2016-07-14T09:11:29.575Z,22.48
2016-07-14T09:12:29.559Z,22.56
2016-07-14T09:13:29.546Z,22.56
2016-07-14T09:14:29.530Z,22.59
2016-07-14T09:15:29.509Z,22.56
2016-07-14T09:16:29.494Z,22.49
2016-07-14T09:17:29.488Z,22.56
2016-07-14T09:18:29.465Z,22.48
2016-07-14T09:19:29.457Z,22.31
2016-07-14T09:20:29.441Z,22.17
2016-07-14T09:21:29.423Z,22.14
2016-07-14T09:22:29.403Z,22.05
2016-07-14T09:23:29.390Z,22.05
2016-07-14T09:24:28.669Z,21.96
2016-07-14T09:25:29.365Z,22.01
2016-07-14T09:26:29.352Z,21.83
2016-07-14T09:27:29.327Z,21.86
2016-07-14T09:28:29.312Z,21.77
2016-07-14T09:29:29.288Z,21.81
2016-07-14T09:30:29.289Z,21.79
2016-07-14T09:31:28.553Z,21.79
2016-07-14T09:32:29.249Z,21.7
2016-07-14T09:33:29.236Z,21.7
2016-07-14T09:34:29.218Z,21.68
2016-07-14T09:35:29.203Z,21.66
2016-07-14T09:36:29.189Z,21.66
2016-07-14T09:37:29.172Z,21.68
2016-07-14T09:38:29.158Z,21.7
2016-07-14T09:39:29.145Z,21.68
2016-07-14T09:40:29.145Z,21.7
2016-07-14T09:41:28.409Z,21.71
2016-07-14T09:42:29.097Z,21.77
2016-07-14T09:43:28.376Z,21.68
2016-07-14T09:44:29.064Z,21.7
2016-07-14T09:45:28.347Z,21.73
2016-07-14T09:46:29.035Z,21.75
2016-07-14T09:47:28.304Z,21.75
2016-07-14T09:48:28.997Z,21.79
2016-07-14T09:49:28.984Z,21.82
2016-07-14T09:50:28.986Z,21.74
2016-07-14T09:51:28.956Z,21.75
2016-07-14T09:52:28.943Z,21.63
2016-07-14T09:53:28.922Z,21.67
2016-07-14T09:54:28.904Z,21.64
2016-07-14T09:55:28.892Z,21.64
2016-07-14T09:56:28.868Z,21.73
2016-07-14T09:57:28.859Z,21.77
2016-07-14T09:58:28.845Z,21.98
2016-07-14T09:59:28.830Z,22.04
2016-07-14T10:00:28.817Z,22.09
2016-07-14T10:01:28.794Z,22.15
2016-07-14T10:02:28.071Z,22.29
2016-07-14T10:03:28.769Z,22.31
2016-07-14T10:04:28.750Z,22.35
2016-07-14T10:05:28.740Z,22.39
2016-07-14T10:06:28.712Z,22.35
2016-07-14T10:07:28.706Z,22.45
2016-07-14T10:08:28.689Z,22.42
2016-07-14T10:09:28.682Z,22.54
2016-07-14T10:10:28.654Z,22.48
2016-07-14T10:11:27.927Z,22.52
2016-07-14T10:12:28.627Z,22.56
2016-07-14T10:13:28.610Z,22.57
2016-07-14T10:14:28.592Z,22.45
2016-07-14T10:15:28.581Z,22.46
2016-07-14T10:16:28.564Z,22.45
2016-07-14T10:17:28.558Z,22.44
2016-07-14T10:18:28.531Z,22.57
2016-07-14T10:19:27.804Z,22.57
2016-07-14T10:20:28.505Z,22.63
2016-07-14T10:21:27.781Z,22.6
2016-07-14T10:22:28.466Z,22.49
2016-07-14T10:23:28.454Z,22.56
2016-07-14T10:24:28.432Z,22.54
2016-07-14T10:25:28.417Z,22.6
2016-07-14T10:26:28.407Z,22.63
2016-07-14T10:27:28.384Z,22.52
2016-07-14T10:28:28.379Z,22.6
2016-07-14T10:29:28.364Z,22.64
2016-07-14T10:30:28.345Z,22.63
2016-07-14T10:31:28.333Z,22.7
2016-07-14T10:32:28.318Z,22.64
2016-07-14T10:33:28.301Z,22.67
2016-07-14T10:34:27.579Z,22.63
2016-07-14T10:35:28.263Z,22.7
2016-07-14T10:36:28.249Z,22.66
2016-07-14T10:37:28.238Z,22.64
2016-07-14T10:38:28.225Z,22.64
2016-07-14T10:39:28.214Z,22.61
2016-07-14T10:40:28.203Z,22.66
2016-07-14T10:41:28.203Z,22.64
2016-07-14T10:42:28.158Z,22.67
2016-07-14T10:43:28.157Z,22.61
2016-07-14T10:44:28.141Z,22.66
2016-07-14T10:45:28.116Z,22.69
2016-07-14T10:46:28.096Z,22.67
2016-07-14T10:47:28.083Z,22.63
2016-07-14T10:48:28.069Z,22.69
2016-07-14T10:49:28.048Z,22.63
2016-07-14T10:50:28.035Z,22.69
2016-07-14T10:51:28.027Z,22.67
2016-07-14T10:52:28.001Z,22.64
2016-07-14T10:53:27.989Z,22.63
2016-07-14T10:54:27.967Z,22.41
2016-07-14T10:55:27.972Z,22.08
2016-07-14T10:56:27.950Z,21.85
2016-07-14T10:57:27.923Z,21.83
2016-07-14T10:58:27.909Z,21.82
2016-07-14T10:59:27.911Z,21.67
2016-07-14T11:00:27.884Z,21.73
2016-07-14T11:01:27.159Z,21.82
2016-07-14T11:02:27.858Z,21.79
2016-07-14T11:03:27.848Z,21.75
2016-07-14T11:04:27.826Z,21.89
2016-07-14T11:05:27.808Z,21.83
2016-07-14T11:06:27.791Z,21.96
2016-07-14T11:07:27.788Z,21.94
2016-07-14T11:08:27.756Z,21.99
2016-07-14T11:09:27.743Z,21.96
2016-07-14T11:10:27.726Z,21.91
2016-07-14T11:11:27.715Z,22.06
2016-07-14T11:12:27.708Z,22.02
2016-07-14T11:13:27.680Z,21.93
2016-07-14T11:14:26.959Z,21.9
2016-07-14T11:15:27.653Z,21.75
2016-07-14T11:16:26.218Z,21.86
2016-07-14T11:17:27.629Z,21.71
2016-07-14T11:18:27.607Z,21.71
2016-07-14T11:19:27.580Z,21.81
2016-07-14T11:20:27.580Z,21.77
2016-07-14T11:21:27.555Z,21.77
2016-07-14T11:22:27.540Z,21.77
2016-07-14T11:23:27.519Z,21.74
2016-07-14T11:24:27.508Z,21.73
2016-07-14T11:25:27.496Z,21.74
2016-07-14T11:26:27.490Z,21.75
2016-07-14T11:27:27.460Z,21.74
2016-07-14T11:28:27.444Z,21.75
2016-07-14T11:29:27.443Z,21.81
2016-07-14T11:30:27.412Z,21.77
2016-07-14T11:31:27.406Z,21.75
2016-07-14T11:32:27.378Z,21.73
2016-07-14T11:33:27.371Z,21.77
2016-07-14T11:34:27.354Z,21.77
2016-07-14T11:35:27.338Z,21.71
2016-07-14T11:36:27.321Z,21.79
2016-07-14T11:37:27.311Z,21.83
2016-07-14T11:38:27.290Z,21.91
2016-07-14T11:39:26.563Z,22.11
2016-07-14T11:40:27.259Z,22.04
2016-07-14T11:41:27.244Z,21.98
2016-07-14T11:42:27.503Z,21.93
2016-07-14T11:43:27.220Z,22.02
2016-07-14T11:44:27.190Z,22.12
2016-07-14T11:45:27.178Z,22.17
2016-07-14T11:46:27.160Z,22.06
2016-07-14T11:47:27.157Z,22.09
2016-07-14T11:48:27.127Z,22.09
2016-07-14T11:49:26.403Z,22.05
2016-07-14T11:50:27.099Z,22.04
2016-07-14T11:51:27.083Z,21.94
2016-07-14T11:52:27.070Z,21.9
2016-07-14T11:53:27.050Z,21.99
2016-07-14T11:54:27.039Z,21.86
2016-07-14T11:55:27.020Z,21.73
2016-07-14T11:56:26.998Z,21.75
2016-07-14T11:57:26.990Z,21.73
2016-07-14T11:58:26.971Z,21.81
2016-07-14T11:59:26.952Z,21.7
2016-07-14T12:00:26.941Z,21.7
2016-07-14T12:01:26.214Z,21.66
2016-07-14T12:02:26.913Z,21.79
2016-07-14T12:03:26.180Z,21.94
2016-07-14T12:04:26.878Z,22.09
2016-07-14T12:05:26.882Z,22.2
2016-07-14T12:06:26.138Z,22.38
2016-07-14T12:08:26.816Z,22.56
2016-07-14T12:09:25.879Z,22.57
2016-07-14T12:10:26.779Z,22.57
2016-07-14T12:11:26.767Z,22.61
2016-07-14T12:12:26.747Z,22.67
2016-07-14T12:13:26.740Z,22.7
2016-07-14T12:14:26.720Z,22.69
2016-07-14T12:15:26.697Z,22.7
2016-07-14T12:16:26.686Z,22.7
2016-07-14T12:17:26.677Z,22.76
2016-07-14T12:18:26.656Z,22.75
2016-07-14T12:19:26.635Z,22.79
2016-07-14T12:20:26.623Z,22.79
2016-07-14T12:21:26.607Z,22.86
2016-07-14T12:22:26.594Z,22.88
2016-07-14T12:23:26.586Z,22.86
2016-07-14T12:24:25.866Z,22.93
2016-07-14T12:25:26.538Z,23.01
2016-07-14T12:26:26.534Z,23
2016-07-14T12:27:26.523Z,23.16
2016-07-14T12:28:26.502Z,23.04
2016-07-14T12:29:26.490Z,23.01
2016-07-14T12:30:26.462Z,23.18
2016-07-14T12:31:26.449Z,23.14
2016-07-14T12:32:26.445Z,23.09
2016-07-14T12:33:25.719Z,23.09
2016-07-14T12:34:26.412Z,23.07
2016-07-14T12:35:26.389Z,23.09
2016-07-14T12:36:26.378Z,23.15
2016-07-14T12:37:26.362Z,23.21
2016-07-14T12:38:25.645Z,23.38
2016-07-14T12:39:26.335Z,23.45
2016-07-14T12:40:26.364Z,23.45
2016-07-14T12:41:26.303Z,23.39
2016-07-14T12:42:26.276Z,23.39
2016-07-14T12:43:26.270Z,23.34
2016-07-14T12:44:26.255Z,23.39
2016-07-14T12:45:26.243Z,23.47
2016-07-14T12:46:26.223Z,23.56
2016-07-14T12:47:26.202Z,23.54
2016-07-14T12:48:26.189Z,23.52
2016-07-14T12:49:26.176Z,23.59
2016-07-14T12:50:26.163Z,23.5
2016-07-14T12:51:26.149Z,23.42
2016-07-14T12:52:26.132Z,23.47
2016-07-14T12:53:25.404Z,23.53
2016-07-14T12:54:25.403Z,23.44
2016-07-14T12:55:26.083Z,23.49
2016-07-14T12:56:26.074Z,23.54
2016-07-14T12:57:26.062Z,23.52